TFM - Tactical Decision Aid
ID: Runway Winds: CIG/VIS Threshold:

KGLH - Greenville/Mid Delta, MS, US

Updated at: 1424 UTC 10 Jul 2020
Latest TAF at: 1120 UTC 10 Jul 2020

TAF Board

Time1353Z 10/15Z 10/16Z 10/17Z 10/18Z 10/19Z 10/20Z 10/21Z 10/22Z 10/23Z 11/00Z 11/01Z 11/02Z 11/03Z>>
Type OBS PRVL PRVL PRVL PRVL PRVL PRVL PRVL PRVL PRVL PRVL PRVL PRVL PRVL
VIS 10 >6 >6 >6 >6 >6 >6 >6 >6 >6 >6 >6 >6 >6
CIG -- -- -- -- -- -- -- -- -- -- -- -- -- --
Cover CLR SCT SCT SCT SCT SCT SCT SCT SCT SCT SCT SCT SCT SCT
FltCat VFR VFR VFR VFR VFR VFR VFR VFR VFR VFR VFR VFR VFR VFR
WX -- -- -- -- -- -- -- -- -- -- -- -- -- --
WDir 270 310 310 310 310 310 310 310 310 310 310 310 310 310
WSpd 7 8 8 8 8 8 8 8 8 8 8 8 8 8
WGst -- -- -- -- -- -- -- -- -- -- -- -- -- --

TDA Impact Legend

  None Marginal Slight Moderate High
Visibility (sm) >5 3≤X≤5 2≤X<3 0.5≤X<2 <0.5
Ceiling (100 ft) >30 10≤X≤30 6≤X<10 2≤X<6 <2
Wind Speed (kt) <15 15≤X<25 25≤X<30 ≥30
Wind Gust (kt) <15 15≤X<25 25≤X<35 ≥35
Weather No Wx Reported VCTS -TS,-FZRA TS,FZRA +TS,+FZRA
TAF
KGLH 101120Z 1012/1112 31008KT P6SM SCT250

METAR
KGLH 101353Z 27007KT 10SM CLR 29/25 A2999 RMK AO2 SLP160 T02890250
KGLH 101253Z 26005KT 10SM CLR 26/24 A2998 RMK AO2 SLP156 T02610244
KGLH 101153Z 22004KT 10SM CLR 24/23 A2998 RMK AO2 SLP157 70002 T02390228 10239 20228 53014

Radar Display
Forecast Discussion